sensor_id;sensor_type;location;lat;lon;timestamp;pressure;altitude;pressure_sealevel;temperature;humidity
7026;BME280;3554;42.132;24.786;2023-04-23T00:01:05;97367.84;;;12.66;100.00
7026;BME280;3554;42.132;24.786;2023-04-23T00:03:33;97357.84;;;12.60;100.00
7026;BME280;3554;42.132;24.786;2023-04-23T00:06:03;97388.97;;;12.65;100.00
7026;BME280;3554;42.132;24.786;2023-04-23T00:08:31;97377.03;;;12.61;100.00
7026;BME280;3554;42.132;24.786;2023-04-23T00:11:00;97345.03;;;12.35;100.00
7026;BME280;3554;42.132;24.786;2023-04-23T00:13:27;97332.22;;;12.53;100.00
7026;BME280;3554;42.132;24.786;2023-04-23T00:15:55;97328.19;;;12.49;100.00
7026;BME280;3554;42.132;24.786;2023-04-23T00:18:22;97310.53;;;12.51;100.00
7026;BME280;3554;42.132;24.786;2023-04-23T00:20:49;97297.81;;;12.67;100.00
7026;BME280;3554;42.132;24.786;2023-04-23T00:23:16;97321.25;;;12.48;100.00
7026;BME280;3554;42.132;24.786;2023-04-23T00:25:43;97322.91;;;12.17;100.00
7026;BME280;3554;42.132;24.786;2023-04-23T00:28:11;97304.19;;;12.11;100.00
7026;BME280;3554;42.132;24.786;2023-04-23T00:30:38;97282.47;;;12.20;100.00
7026;BME280;3554;42.132;24.786;2023-04-23T00:33:05;97307.78;;;11.99;100.00
7026;BME280;3554;42.132;24.786;2023-04-23T00:35:31;97293.34;;;12.04;100.00
7026;BME280;3554;42.132;24.786;2023-04-23T00:37:58;97302.41;;;12.11;100.00
7026;BME280;3554;42.132;24.786;2023-04-23T00:40:25;97361.41;;;12.06;100.00
7026;BME280;3554;42.132;24.786;2023-04-23T00:42:52;97388.47;;;11.95;100.00
7026;BME280;3554;42.132;24.786;2023-04-23T00:45:21;97430.06;;;12.00;100.00
7026;BME280;3554;42.132;24.786;2023-04-23T00:47:48;97483.44;;;11.99;100.00
7026;BME280;3554;42.132;24.786;2023-04-23T00:50:15;97490.06;;;11.80;100.00
7026;BME280;3554;42.132;24.786;2023-04-23T00:52:42;97551.06;;;12.17;100.00
7026;BME280;3554;42.132;24.786;2023-04-23T00:55:09;97585.97;;;12.07;100.00
7026;BME280;3554;42.132;24.786;2023-04-23T00:57:37;97636.53;;;12.20;100.00
7026;BME280;3554;42.132;24.786;2023-04-23T01:00:06;97647.88;;;11.97;100.00
7026;BME280;3554;42.132;24.786;2023-04-23T01:02:35;97710.44;;;12.25;100.00
7026;BME280;3554;42.132;24.786;2023-04-23T01:05:03;97773.91;;;12.06;100.00
7026;BME280;3554;42.132;24.786;2023-04-23T01:07:33;97800.63;;;12.11;100.00
7026;BME280;3554;42.132;24.786;2023-04-23T01:10:01;97832.00;;;12.13;100.00
7026;BME280;3554;42.132;24.786;2023-04-23T01:12:28;97854.22;;;12.20;100.00
7026;BME280;3554;42.132;24.786;2023-04-23T01:14:55;97902.69;;;12.14;100.00
7026;BME280;3554;42.132;24.786;2023-04-23T01:17:22;97924.53;;;12.15;100.00
7026;BME280;3554;42.132;24.786;2023-04-23T01:19:50;97977.31;;;11.98;100.00
7026;BME280;3554;42.132;24.786;2023-04-23T01:22:18;97970.19;;;12.00;100.00
7026;BME280;3554;42.132;24.786;2023-04-23T01:24:46;97970.47;;;11.95;100.00
7026;BME280;3554;42.132;24.786;2023-04-23T01:27:13;97946.25;;;11.66;100.00
7026;BME280;3554;42.132;24.786;2023-04-23T01:29:41;97938.09;;;11.83;100.00
7026;BME280;3554;42.132;24.786;2023-04-23T01:32:08;97926.59;;;11.59;100.00
7026;BME280;3554;42.132;24.786;2023-04-23T01:34:36;97931.56;;;11.64;100.00
7026;BME280;3554;42.132;24.786;2023-04-23T01:37:04;97905.06;;;11.68;100.00
7026;BME280;3554;42.132;24.786;2023-04-23T01:39:34;97905.75;;;11.58;100.00
7026;BME280;3554;42.132;24.786;2023-04-23T01:42:01;97877.66;;;11.47;100.00
7026;BME280;3554;42.132;24.786;2023-04-23T01:44:28;97873.28;;;11.48;100.00
7026;BME280;3554;42.132;24.786;2023-04-23T01:46:55;97861.84;;;11.49;100.00
7026;BME280;3554;42.132;24.786;2023-04-23T01:49:23;97851.69;;;11.44;100.00
7026;BME280;3554;42.132;24.786;2023-04-23T01:51:49;97845.19;;;11.37;100.00
7026;BME280;3554;42.132;24.786;2023-04-23T01:54:16;97830.81;;;11.43;100.00
7026;BME280;3554;42.132;24.786;2023-04-23T01:56:45;97839.09;;;11.37;100.00
7026;BME280;3554;42.132;24.786;2023-04-23T01:59:12;97829.97;;;11.30;100.00
7026;BME280;3554;42.132;24.786;2023-04-23T02:01:43;97807.88;;;11.34;100.00
7026;BME280;3554;42.132;24.786;2023-04-23T02:04:11;97823.59;;;11.21;100.00
7026;BME280;3554;42.132;24.786;2023-04-23T02:06:38;97818.53;;;11.18;100.00
7026;BME280;3554;42.132;24.786;2023-04-23T02:09:06;97788.59;;;11.22;100.00
7026;BME280;3554;42.132;24.786;2023-04-23T02:11:33;97774.75;;;11.20;100.00
7026;BME280;3554;42.132;24.786;2023-04-23T02:14:02;97789.75;;;11.18;100.00
7026;BME280;3554;42.132;24.786;2023-04-23T02:16:29;97802.53;;;11.23;100.00
7026;BME280;3554;42.132;24.786;2023-04-23T02:18:57;97798.34;;;11.20;100.00
7026;BME280;3554;42.132;24.786;2023-04-23T02:21:24;97753.63;;;10.86;100.00
7026;BME280;3554;42.132;24.786;2023-04-23T02:23:51;97801.16;;;11.17;100.00
7026;BME280;3554;42.132;24.786;2023-04-23T02:26:18;97811.44;;;11.20;100.00
7026;BME280;3554;42.132;24.786;2023-04-23T02:28:47;97807.66;;;11.24;100.00
7026;BME280;3554;42.132;24.786;2023-04-23T02:31:15;97827.25;;;11.19;100.00
7026;BME280;3554;42.132;24.786;2023-04-23T02:33:42;97811.28;;;10.97;100.00
7026;BME280;3554;42.132;24.786;2023-04-23T02:36:09;97842.63;;;11.11;100.00
7026;BME280;3554;42.132;24.786;2023-04-23T02:38:36;97864.22;;;11.02;100.00
7026;BME280;3554;42.132;24.786;2023-04-23T02:41:05;97870.69;;;10.96;100.00
7026;BME280;3554;42.132;24.786;2023-04-23T02:43:32;97895.50;;;11.03;100.00
7026;BME280;3554;42.132;24.786;2023-04-23T02:45:59;97914.34;;;10.96;100.00
7026;BME280;3554;42.132;24.786;2023-04-23T02:48:34;97931.47;;;10.87;100.00
7026;BME280;3554;42.132;24.786;2023-04-23T02:51:01;97941.09;;;10.87;100.00
7026;BME280;3554;42.132;24.786;2023-04-23T02:53:28;97948.00;;;10.88;100.00
7026;BME280;3554;42.132;24.786;2023-04-23T02:55:55;97969.94;;;10.99;100.00
7026;BME280;3554;42.132;24.786;2023-04-23T02:58:22;97992.13;;;10.94;100.00
7026;BME280;3554;42.132;24.786;2023-04-23T03:00:49;98011.41;;;10.93;100.00
7026;BME280;3554;42.132;24.786;2023-04-23T03:03:16;98006.06;;;10.94;100.00
7026;BME280;3554;42.132;24.786;2023-04-23T03:05:44;98019.09;;;11.08;100.00
7026;BME280;3554;42.132;24.786;2023-04-23T03:08:11;98058.16;;;11.11;100.00
7026;BME280;3554;42.132;24.786;2023-04-23T03:10:38;98103.16;;;11.04;100.00
7026;BME280;3554;42.132;24.786;2023-04-23T03:13:05;98128.53;;;10.89;100.00
7026;BME280;3554;42.132;24.786;2023-04-23T03:15:31;98149.38;;;10.91;100.00
7026;BME280;3554;42.132;24.786;2023-04-23T03:17:58;98157.41;;;11.02;100.00
7026;BME280;3554;42.132;24.786;2023-04-23T03:20:27;98186.47;;;10.97;100.00
7026;BME280;3554;42.132;24.786;2023-04-23T03:22:55;98205.19;;;11.19;100.00
7026;BME280;3554;42.132;24.786;2023-04-23T03:25:22;98239.41;;;11.02;100.00
7026;BME280;3554;42.132;24.786;2023-04-23T03:27:50;98252.97;;;10.95;100.00
7026;BME280;3554;42.132;24.786;2023-04-23T03:30:17;98234.03;;;10.75;100.00
7026;BME280;3554;42.132;24.786;2023-04-23T03:32:43;98269.88;;;10.89;100.00
7026;BME280;3554;42.132;24.786;2023-04-23T03:35:10;98253.69;;;10.82;100.00
7026;BME280;3554;42.132;24.786;2023-04-23T03:37:37;98246.66;;;10.69;100.00
7026;BME280;3554;42.132;24.786;2023-04-23T03:40:07;98194.50;;;10.52;100.00
7026;BME280;3554;42.132;24.786;2023-04-23T03:42:34;98210.38;;;10.63;100.00
7026;BME280;3554;42.132;24.786;2023-04-23T03:45:02;98172.19;;;10.74;100.00
7026;BME280;3554;42.132;24.786;2023-04-23T03:47:29;98193.50;;;10.97;100.00
7026;BME280;3554;42.132;24.786;2023-04-23T03:49:55;98217.25;;;11.08;100.00
7026;BME280;3554;42.132;24.786;2023-04-23T03:52:22;98214.06;;;10.89;100.00
7026;BME280;3554;42.132;24.786;2023-04-23T03:54:49;98143.56;;;10.57;100.00
7026;BME280;3554;42.132;24.786;2023-04-23T03:57:17;98107.88;;;10.42;100.00
7026;BME280;3554;42.132;24.786;2023-04-23T03:59:44;98031.06;;;10.15;100.00
7026;BME280;3554;42.132;24.786;2023-04-23T04:02:11;97937.25;;;10.11;100.00
7026;BME280;3554;42.132;24.786;2023-04-23T04:04:37;97860.41;;;10.13;100.00
7026;BME280;3554;42.132;24.786;2023-04-23T04:07:04;97813.09;;;10.04;100.00
7026;BME280;3554;42.132;24.786;2023-04-23T04:09:32;97749.78;;;10.13;100.00
7026;BME280;3554;42.132;24.786;2023-04-23T04:11:58;97726.34;;;10.11;100.00
7026;BME280;3554;42.132;24.786;2023-04-23T04:14:27;97699.22;;;10.26;100.00
7026;BME280;3554;42.132;24.786;2023-04-23T04:16:54;97694.31;;;10.47;100.00
7026;BME280;3554;42.132;24.786;2023-04-23T04:19:21;97746.56;;;10.73;100.00
7026;BME280;3554;42.132;24.786;2023-04-23T04:21:48;97783.88;;;11.15;100.00
7026;BME280;3554;42.132;24.786;2023-04-23T04:24:15;97781.03;;;11.55;100.00
7026;BME280;3554;42.132;24.786;2023-04-23T04:26:42;97986.22;;;12.08;100.00
7026;BME280;3554;42.132;24.786;2023-04-23T04:29:10;98168.84;;;11.96;100.00
7026;BME280;3554;42.132;24.786;2023-04-23T04:31:38;98308.75;;;11.53;100.00
7026;BME280;3554;42.132;24.786;2023-04-23T04:34:05;98318.31;;;11.68;100.00
7026;BME280;3554;42.132;24.786;2023-04-23T04:36:33;98360.97;;;11.98;100.00
7026;BME280;3554;42.132;24.786;2023-04-23T04:39:00;98415.19;;;12.26;100.00
7026;BME280;3554;42.132;24.786;2023-04-23T04:41:27;98487.78;;;12.53;100.00
7026;BME280;3554;42.132;24.786;2023-04-23T04:43:54;98565.97;;;13.05;100.00
7026;BME280;3554;42.132;24.786;2023-04-23T04:46:23;98671.69;;;13.22;100.00
7026;BME280;3554;42.132;24.786;2023-04-23T04:48:54;98737.91;;;12.99;100.00
7026;BME280;3554;42.132;24.786;2023-04-23T04:51:21;98778.75;;;13.05;100.00
7026;BME280;3554;42.132;24.786;2023-04-23T04:53:48;98857.19;;;13.11;100.00
7026;BME280;3554;42.132;24.786;2023-04-23T04:56:15;98894.50;;;12.56;100.00
7026;BME280;3554;42.132;24.786;2023-04-23T04:58:42;98873.53;;;12.55;100.00
7026;BME280;3554;42.132;24.786;2023-04-23T05:01:08;98856.69;;;13.48;100.00
7026;BME280;3554;42.132;24.786;2023-04-23T05:03:37;98950.38;;;13.92;100.00
7026;BME280;3554;42.132;24.786;2023-04-23T05:06:06;99009.66;;;13.84;100.00
7026;BME280;3554;42.132;24.786;2023-04-23T05:08:33;99044.03;;;13.81;100.00
7026;BME280;3554;42.132;24.786;2023-04-23T05:10:59;99069.94;;;13.28;100.00
7026;BME280;3554;42.132;24.786;2023-04-23T05:13:28;99062.94;;;12.80;100.00
7026;BME280;3554;42.132;24.786;2023-04-23T05:15:55;99021.88;;;12.63;100.00
7026;BME280;3554;42.132;24.786;2023-04-23T05:18:21;98960.09;;;13.03;100.00
7026;BME280;3554;42.132;24.786;2023-04-23T05:20:48;98948.72;;;13.48;100.00
7026;BME280;3554;42.132;24.786;2023-04-23T05:23:16;98966.59;;;14.29;100.00
7026;BME280;3554;42.132;24.786;2023-04-23T05:25:43;99054.00;;;14.76;100.00
7026;BME280;3554;42.132;24.786;2023-04-23T05:28:10;99135.94;;;15.14;100.00
7026;BME280;3554;42.132;24.786;2023-04-23T05:30:37;99189.97;;;15.49;100.00
7026;BME280;3554;42.132;24.786;2023-04-23T05:33:04;99231.28;;;15.90;100.00
7026;BME280;3554;42.132;24.786;2023-04-23T05:35:31;99274.31;;;16.05;100.00
7026;BME280;3554;42.132;24.786;2023-04-23T05:37:57;99295.09;;;16.24;100.00
7026;BME280;3554;42.132;24.786;2023-04-23T05:40:25;99318.00;;;16.37;100.00
7026;BME280;3554;42.132;24.786;2023-04-23T05:42:52;99341.50;;;16.28;100.00
7026;BME280;3554;42.132;24.786;2023-04-23T05:45:19;99351.91;;;16.43;100.00
7026;BME280;3554;42.132;24.786;2023-04-23T05:47:46;99329.03;;;16.03;100.00
7026;BME280;3554;42.132;24.786;2023-04-23T05:50:12;99336.38;;;16.12;100.00
7026;BME280;3554;42.132;24.786;2023-04-23T05:52:39;99362.69;;;16.40;100.00
7026;BME280;3554;42.132;24.786;2023-04-23T05:55:07;99394.31;;;16.42;100.00
7026;BME280;3554;42.132;24.786;2023-04-23T05:57:37;99402.91;;;16.31;100.00
7026;BME280;3554;42.132;24.786;2023-04-23T06:00:05;99387.66;;;16.08;100.00
7026;BME280;3554;42.132;24.786;2023-04-23T06:02:34;99400.22;;;15.03;100.00
7026;BME280;3554;42.132;24.786;2023-04-23T06:05:00;99411.19;;;14.66;100.00
7026;BME280;3554;42.132;24.786;2023-04-23T06:07:27;99383.34;;;14.91;100.00
7026;BME280;3554;42.132;24.786;2023-04-23T06:09:54;99390.22;;;15.67;100.00
7026;BME280;3554;42.132;24.786;2023-04-23T06:12:21;99424.19;;;16.01;100.00
7026;BME280;3554;42.132;24.786;2023-04-23T06:14:51;99452.56;;;15.98;100.00
7026;BME280;3554;42.132;24.786;2023-04-23T06:17:18;99451.38;;;15.60;100.00
7026;BME280;3554;42.132;24.786;2023-04-23T06:19:45;99433.22;;;15.69;100.00
7026;BME280;3554;42.132;24.786;2023-04-23T06:22:12;99442.75;;;16.14;100.00
7026;BME280;3554;42.132;24.786;2023-04-23T06:24:39;99450.19;;;16.50;100.00
7026;BME280;3554;42.132;24.786;2023-04-23T06:27:05;99451.28;;;17.00;100.00
7026;BME280;3554;42.132;24.786;2023-04-23T06:29:32;99452.69;;;17.45;100.00
7026;BME280;3554;42.132;24.786;2023-04-23T06:32:01;99442.03;;;17.72;100.00
7026;BME280;3554;42.132;24.786;2023-04-23T06:34:29;99456.00;;;17.49;100.00
7026;BME280;3554;42.132;24.786;2023-04-23T06:36:56;99476.53;;;17.19;100.00
7026;BME280;3554;42.132;24.786;2023-04-23T06:39:22;99467.19;;;17.13;100.00
7026;BME280;3554;42.132;24.786;2023-04-23T06:41:49;99492.53;;;17.30;100.00
7026;BME280;3554;42.132;24.786;2023-04-23T06:44:16;99495.94;;;17.32;100.00
7026;BME280;3554;42.132;24.786;2023-04-23T06:46:43;99505.53;;;17.20;100.00
7026;BME280;3554;42.132;24.786;2023-04-23T06:49:11;99498.91;;;17.40;100.00
7026;BME280;3554;42.132;24.786;2023-04-23T06:51:38;99524.63;;;17.11;100.00
7026;BME280;3554;42.132;24.786;2023-04-23T06:54:05;99512.19;;;16.58;100.00
7026;BME280;3554;42.132;24.786;2023-04-23T06:56:31;99513.50;;;16.37;100.00
7026;BME280;3554;42.132;24.786;2023-04-23T06:58:58;99512.19;;;16.58;100.00
7026;BME280;3554;42.132;24.786;2023-04-23T07:01:25;99518.34;;;16.59;100.00
7026;BME280;3554;42.132;24.786;2023-04-23T07:03:52;99517.31;;;16.88;100.00
7026;BME280;3554;42.132;24.786;2023-04-23T07:06:20;99522.63;;;17.14;100.00
7026;BME280;3554;42.132;24.786;2023-04-23T07:08:47;99522.91;;;16.41;100.00
7026;BME280;3554;42.132;24.786;2023-04-23T07:11:14;99505.56;;;16.23;100.00
7026;BME280;3554;42.132;24.786;2023-04-23T07:13:41;99512.75;;;16.35;100.00
7026;BME280;3554;42.132;24.786;2023-04-23T07:16:08;99517.25;;;16.19;100.00
7026;BME280;3554;42.132;24.786;2023-04-23T07:18:34;99514.53;;;16.63;100.00
7026;BME280;3554;42.132;24.786;2023-04-23T07:21:01;99523.97;;;17.07;100.00
7026;BME280;3554;42.132;24.786;2023-04-23T07:23:29;99516.50;;;16.59;100.00
7026;BME280;3554;42.132;24.786;2023-04-23T07:25:56;99510.44;;;16.85;100.00
7026;BME280;3554;42.132;24.786;2023-04-23T07:28:23;99504.84;;;17.43;100.00
7026;BME280;3554;42.132;24.786;2023-04-23T07:30:50;99513.28;;;17.36;100.00
7026;BME280;3554;42.132;24.786;2023-04-23T07:33:17;99527.63;;;17.72;100.00
7026;BME280;3554;42.132;24.786;2023-04-23T07:35:44;99534.81;;;17.17;100.00
7026;BME280;3554;42.132;24.786;2023-04-23T07:38:11;99529.38;;;17.33;100.00
7026;BME280;3554;42.132;24.786;2023-04-23T07:40:39;99489.19;;;17.40;100.00
7026;BME280;3554;42.132;24.786;2023-04-23T07:43:05;99537.91;;;17.89;100.00
7026;BME280;3554;42.132;24.786;2023-04-23T07:45:32;99528.94;;;18.04;100.00
7026;BME280;3554;42.132;24.786;2023-04-23T07:47:59;99532.66;;;18.27;100.00
7026;BME280;3554;42.132;24.786;2023-04-23T07:50:26;99532.31;;;17.81;100.00
7026;BME280;3554;42.132;24.786;2023-04-23T07:52:53;99533.28;;;17.27;100.00
7026;BME280;3554;42.132;24.786;2023-04-23T07:55:20;99520.31;;;17.63;100.00
7026;BME280;3554;42.132;24.786;2023-04-23T07:57:49;99529.97;;;17.89;100.00
7026;BME280;3554;42.132;24.786;2023-04-23T08:00:16;99497.19;;;17.53;100.00
7026;BME280;3554;42.132;24.786;2023-04-23T08:02:43;99522.44;;;17.71;100.00
7026;BME280;3554;42.132;24.786;2023-04-23T08:05:10;99539.94;;;17.86;100.00
7026;BME280;3554;42.132;24.786;2023-04-23T08:07:37;99548.00;;;17.97;100.00
7026;BME280;3554;42.132;24.786;2023-04-23T08:10:04;99545.31;;;17.72;100.00
7026;BME280;3554;42.132;24.786;2023-04-23T08:12:33;99541.09;;;17.29;100.00
7026;BME280;3554;42.132;24.786;2023-04-23T08:15:03;99544.91;;;17.25;100.00
7026;BME280;3554;42.132;24.786;2023-04-23T08:17:30;99539.06;;;17.20;100.00
7026;BME280;3554;42.132;24.786;2023-04-23T08:19:56;99535.63;;;17.05;100.00
7026;BME280;3554;42.132;24.786;2023-04-23T08:22:23;99533.81;;;17.05;100.00
7026;BME280;3554;42.132;24.786;2023-04-23T08:24:50;99529.97;;;17.24;100.00
7026;BME280;3554;42.132;24.786;2023-04-23T08:27:17;99523.28;;;17.45;100.00
7026;BME280;3554;42.132;24.786;2023-04-23T08:29:44;99522.69;;;18.05;100.00
7026;BME280;3554;42.132;24.786;2023-04-23T08:32:12;99525.13;;;17.96;100.00
7026;BME280;3554;42.132;24.786;2023-04-23T08:34:38;99535.31;;;17.63;100.00
7026;BME280;3554;42.132;24.786;2023-04-23T08:37:05;99526.28;;;17.92;100.00
7026;BME280;3554;42.132;24.786;2023-04-23T08:39:33;99532.75;;;18.13;100.00
7026;BME280;3554;42.132;24.786;2023-04-23T08:42:05;99526.63;;;18.25;100.00
7026;BME280;3554;42.132;24.786;2023-04-23T08:44:37;99536.06;;;18.16;100.00
7026;BME280;3554;42.132;24.786;2023-04-23T08:47:06;99522.81;;;18.16;100.00
7026;BME280;3554;42.132;24.786;2023-04-23T08:49:40;99511.22;;;18.05;100.00
7026;BME280;3554;42.132;24.786;2023-04-23T08:52:14;99513.59;;;18.22;100.00
7026;BME280;3554;42.132;24.786;2023-04-23T08:54:45;99526.50;;;18.14;100.00
7026;BME280;3554;42.132;24.786;2023-04-23T08:57:15;99532.78;;;17.08;100.00
7026;BME280;3554;42.132;24.786;2023-04-23T08:59:42;99533.44;;;17.11;100.00
7026;BME280;3554;42.132;24.786;2023-04-23T09:02:10;99519.28;;;17.25;100.00
7026;BME280;3554;42.132;24.786;2023-04-23T09:04:40;99530.03;;;17.63;100.00
7026;BME280;3554;42.132;24.786;2023-04-23T09:07:07;99528.19;;;17.90;100.00
7026;BME280;3554;42.132;24.786;2023-04-23T09:09:36;99525.44;;;18.04;98.11
7026;BME280;3554;42.132;24.786;2023-04-23T09:12:05;99524.06;;;18.11;100.00
7026;BME280;3554;42.132;24.786;2023-04-23T09:14:32;99512.63;;;18.23;100.00
7026;BME280;3554;42.132;24.786;2023-04-23T09:16:59;99493.00;;;18.38;100.00
7026;BME280;3554;42.132;24.786;2023-04-23T09:19:27;99503.72;;;18.11;100.00
7026;BME280;3554;42.132;24.786;2023-04-23T09:21:56;99514.25;;;17.61;100.00
7026;BME280;3554;42.132;24.786;2023-04-23T09:24:25;99502.53;;;17.65;100.00
7026;BME280;3554;42.132;24.786;2023-04-23T09:26:52;99503.09;;;18.21;100.00
7026;BME280;3554;42.132;24.786;2023-04-23T09:29:20;99496.53;;;18.13;100.00
7026;BME280;3554;42.132;24.786;2023-04-23T09:31:49;99498.84;;;18.18;100.00
7026;BME280;3554;42.132;24.786;2023-04-23T09:34:17;99509.13;;;18.35;97.66
7026;BME280;3554;42.132;24.786;2023-04-23T09:36:45;99504.47;;;18.26;95.03
7026;BME280;3554;42.132;24.786;2023-04-23T09:39:14;99491.13;;;18.53;93.65
7026;BME280;3554;42.132;24.786;2023-04-23T09:41:41;99470.34;;;18.47;96.90
7026;BME280;3554;42.132;24.786;2023-04-23T09:44:08;99500.38;;;18.71;97.34
7026;BME280;3554;42.132;24.786;2023-04-23T09:46:38;99488.53;;;18.51;99.38
7026;BME280;3554;42.132;24.786;2023-04-23T09:49:06;99488.53;;;17.37;100.00
7026;BME280;3554;42.132;24.786;2023-04-23T09:51:35;99488.19;;;17.29;100.00
7026;BME280;3554;42.132;24.786;2023-04-23T09:54:02;99474.97;;;17.29;100.00
7026;BME280;3554;42.132;24.786;2023-04-23T09:56:30;99475.59;;;17.71;100.00
7026;BME280;3554;42.132;24.786;2023-04-23T09:58:57;99472.13;;;18.21;100.00
7026;BME280;3554;42.132;24.786;2023-04-23T10:01:27;99475.19;;;18.40;100.00
7026;BME280;3554;42.132;24.786;2023-04-23T10:03:55;99475.84;;;18.31;100.00
7026;BME280;3554;42.132;24.786;2023-04-23T10:06:27;99468.97;;;18.41;100.00
7026;BME280;3554;42.132;24.786;2023-04-23T10:08:55;99466.19;;;18.43;100.00
7026;BME280;3554;42.132;24.786;2023-04-23T10:11:23;99448.19;;;18.35;100.00
7026;BME280;3554;42.132;24.786;2023-04-23T10:13:52;99424.66;;;17.55;100.00
7026;BME280;3554;42.132;24.786;2023-04-23T10:16:20;99457.47;;;18.28;100.00
7026;BME280;3554;42.132;24.786;2023-04-23T10:18:50;99451.13;;;18.31;100.00
7026;BME280;3554;42.132;24.786;2023-04-23T10:21:24;99447.00;;;18.14;100.00
7026;BME280;3554;42.132;24.786;2023-04-23T10:23:54;99428.91;;;18.21;100.00
7026;BME280;3554;42.132;24.786;2023-04-23T10:26:23;99436.91;;;18.44;100.00
7026;BME280;3554;42.132;24.786;2023-04-23T10:28:53;99437.91;;;18.43;100.00
7026;BME280;3554;42.132;24.786;2023-04-23T10:31:20;99431.28;;;18.61;100.00
7026;BME280;3554;42.132;24.786;2023-04-23T10:33:48;99432.53;;;18.68;100.00
7026;BME280;3554;42.132;24.786;2023-04-23T10:36:16;99429.09;;;18.79;100.00
7026;BME280;3554;42.132;24.786;2023-04-23T10:38:44;99426.91;;;18.11;100.00
7026;BME280;3554;42.132;24.786;2023-04-23T10:41:15;99413.97;;;18.07;100.00
7026;BME280;3554;42.132;24.786;2023-04-23T10:43:43;99420.47;;;18.39;100.00
7026;BME280;3554;42.132;24.786;2023-04-23T10:46:29;99417.50;;;18.56;100.00
7026;BME280;3554;42.132;24.786;2023-04-23T10:49:06;99398.75;;;18.83;100.00
7026;BME280;3554;42.132;24.786;2023-04-23T10:51:33;99406.16;;;19.25;100.00
7026;BME280;3554;42.132;24.786;2023-04-23T10:54:02;99409.59;;;19.38;100.00
7026;BME280;3554;42.132;24.786;2023-04-23T10:56:29;99406.09;;;19.38;100.00
7026;BME280;3554;42.132;24.786;2023-04-23T10:58:56;99408.75;;;19.14;100.00
7026;BME280;3554;42.132;24.786;2023-04-23T11:01:23;99395.13;;;19.42;100.00
7026;BME280;3554;42.132;24.786;2023-04-23T11:03:52;99355.19;;;19.09;97.38
7026;BME280;3554;42.132;24.786;2023-04-23T11:06:59;99395.28;;;19.28;97.04
7026;BME280;3554;42.132;24.786;2023-04-23T11:09:31;99393.59;;;19.51;96.79
7026;BME280;3554;42.132;24.786;2023-04-23T11:11:59;99386.44;;;19.51;96.69
7026;BME280;3554;42.132;24.786;2023-04-23T11:14:37;99390.84;;;19.63;95.68
7026;BME280;3554;42.132;24.786;2023-04-23T11:17:10;99385.63;;;18.92;99.17
7026;BME280;3554;42.132;24.786;2023-04-23T11:19:39;99371.84;;;18.28;100.00
7026;BME280;3554;42.132;24.786;2023-04-23T11:22:12;99361.19;;;18.76;100.00
7026;BME280;3554;42.132;24.786;2023-04-23T11:24:40;99372.28;;;18.94;100.00
7026;BME280;3554;42.132;24.786;2023-04-23T11:27:09;99372.72;;;18.88;100.00
7026;BME280;3554;42.132;24.786;2023-04-23T11:29:37;99369.69;;;18.81;100.00
7026;BME280;3554;42.132;24.786;2023-04-23T11:32:04;99350.59;;;18.76;98.16
7026;BME280;3554;42.132;24.786;2023-04-23T11:34:35;99287.94;;;18.39;94.97
7026;BME280;3554;42.132;24.786;2023-04-23T11:37:04;99374.19;;;18.92;95.20
7026;BME280;3554;42.132;24.786;2023-04-23T11:39:31;99355.09;;;19.21;100.00
7026;BME280;3554;42.132;24.786;2023-04-23T11:41:58;99367.75;;;19.53;94.53
7026;BME280;3554;42.132;24.786;2023-04-23T11:44:27;99355.56;;;19.72;95.10
7026;BME280;3554;42.132;24.786;2023-04-23T11:46:58;99366.00;;;19.86;93.49
7026;BME280;3554;42.132;24.786;2023-04-23T11:49:26;99366.56;;;19.68;90.35
7026;BME280;3554;42.132;24.786;2023-04-23T11:51:53;99368.25;;;19.69;86.68
7026;BME280;3554;42.132;24.786;2023-04-23T11:54:26;99356.19;;;19.87;84.60
7026;BME280;3554;42.132;24.786;2023-04-23T11:56:54;99351.63;;;19.67;85.48
7026;BME280;3554;42.132;24.786;2023-04-23T11:59:22;99350.75;;;19.66;83.21
7026;BME280;3554;42.132;24.786;2023-04-23T12:01:52;99341.69;;;19.69;82.69
7026;BME280;3554;42.132;24.786;2023-04-23T12:04:20;99356.44;;;19.73;79.00
7026;BME280;3554;42.132;24.786;2023-04-23T12:06:49;99351.59;;;19.78;75.22
7026;BME280;3554;42.132;24.786;2023-04-23T12:09:17;99341.69;;;19.91;78.39
7026;BME280;3554;42.132;24.786;2023-04-23T12:11:46;99340.59;;;20.15;77.11
7026;BME280;3554;42.132;24.786;2023-04-23T12:14:16;99345.91;;;20.15;72.78
7026;BME280;3554;42.132;24.786;2023-04-23T12:16:44;99328.91;;;19.63;71.33
7026;BME280;3554;42.132;24.786;2023-04-23T12:19:13;99339.78;;;19.93;70.11
7026;BME280;3554;42.132;24.786;2023-04-23T12:21:48;99337.38;;;19.90;67.44
7026;BME280;3554;42.132;24.786;2023-04-23T12:24:15;99333.13;;;19.98;71.89
7026;BME280;3554;42.132;24.786;2023-04-23T12:26:42;99312.72;;;19.77;66.85
7026;BME280;3554;42.132;24.786;2023-04-23T12:29:12;99320.19;;;20.05;68.85
7026;BME280;3554;42.132;24.786;2023-04-23T12:31:39;99304.84;;;20.08;68.92
7026;BME280;3554;42.132;24.786;2023-04-23T12:34:09;99308.50;;;20.18;71.89
7026;BME280;3554;42.132;24.786;2023-04-23T12:36:37;99290.34;;;20.12;67.78
7026;BME280;3554;42.132;24.786;2023-04-23T12:39:24;99261.25;;;20.22;68.69
7026;BME280;3554;42.132;24.786;2023-04-23T12:41:52;99304.59;;;20.22;67.17
7026;BME280;3554;42.132;24.786;2023-04-23T12:44:21;99299.88;;;20.15;65.35
7026;BME280;3554;42.132;24.786;2023-04-23T12:46:49;99287.94;;;20.20;63.89
7026;BME280;3554;42.132;24.786;2023-04-23T12:49:19;99300.91;;;19.81;63.68
7026;BME280;3554;42.132;24.786;2023-04-23T12:51:46;99295.69;;;20.01;66.20
7026;BME280;3554;42.132;24.786;2023-04-23T12:54:13;99301.34;;;20.30;64.31
7026;BME280;3554;42.132;24.786;2023-04-23T12:56:40;99292.94;;;20.46;63.33
7026;BME280;3554;42.132;24.786;2023-04-23T12:59:07;99292.28;;;20.33;61.69
7026;BME280;3554;42.132;24.786;2023-04-23T13:01:35;99294.69;;;20.24;60.97
7026;BME280;3554;42.132;24.786;2023-04-23T13:04:02;99299.84;;;20.48;58.63
7026;BME280;3554;42.132;24.786;2023-04-23T13:06:29;99290.88;;;20.49;59.22